createdAt,value
2023-04-25T00:01:57.805Z,4.30
2023-04-25T00:04:24.800Z,5.50
2023-04-25T00:06:53.300Z,4.72
2023-04-25T00:09:20.225Z,3.78
2023-04-25T00:11:47.063Z,4.63
2023-04-25T00:14:14.131Z,3.47
2023-04-25T00:16:42.274Z,4.18
2023-04-25T00:19:10.478Z,4.05
2023-04-25T00:21:41.545Z,4.65
2023-04-25T00:24:08.726Z,4.40
2023-04-25T00:26:36.827Z,4.90
2023-04-25T00:29:03.772Z,4.68
2023-04-25T00:31:31.539Z,5.88
2023-04-25T00:33:58.492Z,4.93
2023-04-25T00:36:26.791Z,5.07
2023-04-25T00:38:55.927Z,4.72
2023-04-25T00:41:23.251Z,4.07
2023-04-25T00:43:52.091Z,5.43
2023-04-25T00:46:19.118Z,4.47
2023-04-25T00:48:46.499Z,5.65
2023-04-25T00:51:20.467Z,4.30
2023-04-25T00:53:49.054Z,4.05
2023-04-25T00:56:16.545Z,4.53
2023-04-25T00:58:46.573Z,5.07
2023-04-25T01:01:14.294Z,4.75
2023-04-25T01:03:42.066Z,5.10
2023-04-25T01:06:11.116Z,4.93
2023-04-25T01:08:40.193Z,4.70
2023-04-25T01:11:07.720Z,4.43
2023-04-25T01:13:35.413Z,4.40
2023-04-25T01:16:03.494Z,5.10
2023-04-25T01:18:30.354Z,4.95
2023-04-25T01:21:17.607Z,4.18
2023-04-25T01:23:45.686Z,4.15
2023-04-25T01:26:13.318Z,4.75
2023-04-25T01:28:43.850Z,5.82
2023-04-25T01:31:13.128Z,4.05
2023-04-25T01:33:40.186Z,4.88
2023-04-25T01:36:07.392Z,4.05
2023-04-25T01:38:36.162Z,4.40
2023-04-25T01:41:03.287Z,5.00
2023-04-25T01:43:30.387Z,5.22
2023-04-25T01:45:58.120Z,4.18
2023-04-25T01:48:25.475Z,4.47
2023-04-25T01:50:52.414Z,4.85
2023-04-25T01:53:19.335Z,6.00
2023-04-25T01:55:46.806Z,4.43
2023-04-25T01:58:16.296Z,4.40
2023-04-25T02:01:01.760Z,4.13
2023-04-25T02:03:35.468Z,4.60
2023-04-25T02:06:04.798Z,3.72
2023-04-25T02:08:34.507Z,4.35
2023-04-25T02:11:01.536Z,4.28
2023-04-25T02:13:34.453Z,4.72
2023-04-25T02:16:19.902Z,3.90
2023-04-25T02:18:47.008Z,4.10
2023-04-25T02:21:13.863Z,4.20
2023-04-25T02:23:40.748Z,3.90
2023-04-25T02:26:07.576Z,4.35
2023-04-25T02:28:34.624Z,4.10
2023-04-25T02:31:05.074Z,3.80
2023-04-25T02:33:31.901Z,3.85
2023-04-25T02:35:58.771Z,4.28
2023-04-25T02:38:25.611Z,3.10
2023-04-25T02:40:52.449Z,3.67
2023-04-25T02:43:19.313Z,3.97
2023-04-25T02:45:46.156Z,4.22
2023-04-25T02:48:13.076Z,3.65
2023-04-25T02:50:39.930Z,3.85
2023-04-25T02:53:06.720Z,3.75
2023-04-25T02:55:38.628Z,4.38
2023-04-25T02:58:06.309Z,3.95
2023-04-25T03:00:42.949Z,4.53
2023-04-25T03:03:09.952Z,4.10
2023-04-25T03:05:37.045Z,4.13
2023-04-25T03:08:04.280Z,3.78
2023-04-25T03:10:33.023Z,4.00
2023-04-25T03:13:04.247Z,4.75
2023-04-25T03:15:32.189Z,4.35
2023-04-25T03:17:59.051Z,4.38
2023-04-25T03:20:25.982Z,3.95
2023-04-25T03:22:52.931Z,3.83
2023-04-25T03:25:19.793Z,3.28
2023-04-25T03:27:47.111Z,4.10
2023-04-25T03:30:14.201Z,4.45
2023-04-25T03:32:43.183Z,3.65
2023-04-25T03:35:10.089Z,4.03
2023-04-25T03:37:37.012Z,3.63
2023-04-25T03:40:05.056Z,3.90
2023-04-25T03:42:51.898Z,3.85
2023-04-25T03:45:19.037Z,4.78
2023-04-25T03:47:46.038Z,4.55
2023-04-25T03:50:13.242Z,4.50
2023-04-25T03:52:40.200Z,4.65
2023-04-25T03:55:07.649Z,5.18
2023-04-25T03:57:34.450Z,4.50
2023-04-25T04:00:01.756Z,4.47
2023-04-25T04:02:41.822Z,4.70
2023-04-25T04:05:12.377Z,4.07
2023-04-25T04:07:45.689Z,3.55
2023-04-25T04:10:13.691Z,4.60
2023-04-25T04:12:41.459Z,4.05
2023-04-25T04:15:08.881Z,3.38
2023-04-25T04:17:36.515Z,3.90
2023-04-25T04:20:04.622Z,4.13
2023-04-25T04:22:32.727Z,3.70
2023-04-25T04:25:05.692Z,2.83
2023-04-25T04:27:55.624Z,3.25
2023-04-25T04:30:31.969Z,3.25
2023-04-25T04:35:29.289Z,2.83
2023-04-25T04:37:56.387Z,3.83
2023-04-25T04:40:26.532Z,2.70
2023-04-25T04:43:03.065Z,2.92
2023-04-25T04:45:57.157Z,2.40
2023-04-25T04:48:35.383Z,2.00
2023-04-25T04:51:21.919Z,2.83
2023-04-25T04:54:04.754Z,2.10
2023-04-25T04:56:45.621Z,1.88
2023-04-25T04:59:25.564Z,2.33
2023-04-25T05:02:16.854Z,1.85
2023-04-25T05:05:22.345Z,2.10
2023-04-25T05:08:04.238Z,2.05
2023-04-25T05:10:48.567Z,1.98
2023-04-25T05:13:38.585Z,1.50
2023-04-25T05:16:36.264Z,2.13
2023-04-25T05:19:22.012Z,1.42
2023-04-25T05:22:12.039Z,2.45
2023-04-25T05:25:05.619Z,2.40
2023-04-25T05:28:13.468Z,2.60
2023-04-25T05:30:51.242Z,1.92
2023-04-25T05:33:30.288Z,1.80
2023-04-25T05:35:57.231Z,2.20
2023-04-25T05:38:25.891Z,2.25
2023-04-25T05:41:16.315Z,2.00
2023-04-25T05:44:01.937Z,2.15
2023-04-25T05:46:41.083Z,2.20
2023-04-25T05:49:28.149Z,2.13
2023-04-25T05:52:13.436Z,2.40
2023-04-25T05:55:03.705Z,2.63
2023-04-25T05:57:32.333Z,2.47
2023-04-25T05:59:59.812Z,2.70
2023-04-25T06:02:40.424Z,2.53
2023-04-25T06:05:09.346Z,2.45
2023-04-25T06:07:36.565Z,2.22
2023-04-25T06:10:07.324Z,2.72
2023-04-25T06:12:34.482Z,3.05
2023-04-25T06:15:02.248Z,3.20
2023-04-25T06:17:31.763Z,2.47
2023-04-25T06:19:59.148Z,2.25
2023-04-25T06:22:26.131Z,2.33
2023-04-25T06:24:53.306Z,3.40
2023-04-25T06:27:20.262Z,3.13
2023-04-25T06:29:47.222Z,2.28
2023-04-25T06:32:15.141Z,1.85
2023-04-25T06:34:41.979Z,1.95
2023-04-25T06:37:09.186Z,2.05
2023-04-25T06:39:36.888Z,2.20
2023-04-25T06:42:05.519Z,2.25
2023-04-25T06:44:41.620Z,2.03
2023-04-25T06:47:09.871Z,1.95
2023-04-25T06:49:36.899Z,1.83
2023-04-25T06:52:04.057Z,1.58
2023-04-25T06:54:30.990Z,1.90
2023-04-25T06:57:06.770Z,2.15
2023-04-25T06:59:33.829Z,2.60
2023-04-25T07:02:00.651Z,2.10
2023-04-25T07:04:27.652Z,2.17
2023-04-25T07:06:59.346Z,2.05
2023-04-25T07:09:34.954Z,1.90
2023-04-25T07:12:04.652Z,2.17
2023-04-25T07:14:31.981Z,3.13
2023-04-25T07:17:00.295Z,2.45
2023-04-25T07:19:30.750Z,2.15
2023-04-25T07:22:00.524Z,1.52
2023-04-25T07:24:27.531Z,2.28
2023-04-25T07:26:55.775Z,2.15
2023-04-25T07:29:29.640Z,1.92
2023-04-25T07:31:59.382Z,2.50
2023-04-25T07:34:26.281Z,2.33
2023-04-25T07:36:53.581Z,2.25
2023-04-25T07:39:21.232Z,1.33
2023-04-25T07:41:48.370Z,1.55
2023-04-25T07:44:21.005Z,1.90
2023-04-25T07:46:47.950Z,1.30
2023-04-25T07:49:14.826Z,1.35
2023-04-25T07:51:44.511Z,2.80
2023-04-25T07:54:15.686Z,1.80
2023-04-25T07:56:52.710Z,1.70
2023-04-25T07:59:21.424Z,2.00
2023-04-25T08:01:48.614Z,2.08
2023-04-25T08:04:16.542Z,1.75
2023-04-25T08:07:03.094Z,1.38
2023-04-25T08:09:37.245Z,2.10
2023-04-25T08:12:07.670Z,2.92
2023-04-25T08:14:38.066Z,1.70
2023-04-25T08:17:06.213Z,1.30
2023-04-25T08:19:35.192Z,1.92
2023-04-25T08:22:03.150Z,1.40
2023-04-25T08:24:39.818Z,1.75
2023-04-25T08:27:09.152Z,1.35
2023-04-25T08:29:36.479Z,1.73
2023-04-25T08:32:03.398Z,1.38
2023-04-25T08:34:31.352Z,2.03
2023-04-25T08:37:05.171Z,1.13
2023-04-25T08:39:41.604Z,1.30
2023-04-25T08:42:47.932Z,1.88
2023-04-25T08:45:15.013Z,1.50
2023-04-25T08:47:45.089Z,2.10
2023-04-25T08:50:11.979Z,1.50
2023-04-25T08:52:45.684Z,1.10
2023-04-25T08:55:14.150Z,1.27
2023-04-25T08:57:46.114Z,1.58
2023-04-25T09:00:14.268Z,1.55
2023-04-25T09:02:45.060Z,1.08
2023-04-25T09:05:14.456Z,1.30
2023-04-25T09:07:41.732Z,1.13
2023-04-25T09:10:09.168Z,1.73
2023-04-25T09:12:38.659Z,1.10
2023-04-25T09:15:10.822Z,1.90
2023-04-25T09:18:00.654Z,1.02
2023-04-25T09:20:59.620Z,1.63
2023-04-25T09:23:29.309Z,2.10
2023-04-25T09:25:56.230Z,1.50
2023-04-25T09:28:30.075Z,1.23
2023-04-25T09:30:59.069Z,1.30
2023-04-25T09:34:01.315Z,1.30
2023-04-25T09:36:30.811Z,0.80
2023-04-25T09:39:23.633Z,0.85
2023-04-25T09:41:58.855Z,0.90
2023-04-25T09:44:26.105Z,1.10
2023-04-25T09:46:54.711Z,1.77
2023-04-25T09:49:25.804Z,1.40
2023-04-25T09:52:08.238Z,1.20
2023-04-25T09:54:49.718Z,1.70
2023-04-25T09:57:24.799Z,1.23
2023-04-25T09:59:55.138Z,1.23
2023-04-25T10:02:25.057Z,1.27
2023-04-25T10:04:57.097Z,1.10
2023-04-25T10:07:31.775Z,0.77
2023-04-25T10:10:03.791Z,0.95
2023-04-25T10:12:34.767Z,0.90
2023-04-25T10:15:03.840Z,1.60
2023-04-25T10:17:31.098Z,1.80
2023-04-25T10:19:58.390Z,1.00
2023-04-25T10:22:32.119Z,1.05
2023-04-25T10:24:59.534Z,1.75
2023-04-25T10:27:29.092Z,1.38
2023-04-25T10:30:13.682Z,2.00
2023-04-25T10:32:42.384Z,1.55
2023-04-25T10:35:17.492Z,1.42
2023-04-25T10:38:15.183Z,1.30
2023-04-25T10:40:42.160Z,1.52
2023-04-25T10:43:31.908Z,0.98
2023-04-25T10:46:01.675Z,1.33
2023-04-25T10:48:29.827Z,1.05
2023-04-25T10:51:16.456Z,1.27
2023-04-25T10:53:57.193Z,1.20
2023-04-25T10:56:32.553Z,1.17
2023-04-25T10:59:07.977Z,1.00
2023-04-25T11:01:42.388Z,1.73
2023-04-25T11:04:31.131Z,1.35
2023-04-25T11:07:10.613Z,1.48
2023-04-25T11:09:41.118Z,1.05
2023-04-25T11:12:13.604Z,1.50
2023-04-25T11:17:07.581Z,1.67
2023-04-25T11:19:34.687Z,1.05
2023-04-25T11:22:02.899Z,1.73
2023-04-25T11:24:35.484Z,1.40
2023-04-25T11:27:09.309Z,1.70
2023-04-25T11:29:36.468Z,1.00
2023-04-25T11:32:03.558Z,0.90
2023-04-25T11:34:31.873Z,1.20
2023-04-25T11:36:59.075Z,1.38
2023-04-25T11:39:28.210Z,0.98
2023-04-25T11:41:56.320Z,1.27
2023-04-25T11:44:23.495Z,1.15
2023-04-25T11:46:50.389Z,1.40
2023-04-25T11:49:19.324Z,2.22
2023-04-25T11:51:49.172Z,0.85
2023-04-25T11:54:16.844Z,1.50
2023-04-25T11:56:44.708Z,1.00
2023-04-25T11:59:12.693Z,1.20
2023-04-25T12:01:42.033Z,1.35
2023-04-25T12:04:23.925Z,1.75
2023-04-25T12:06:52.789Z,1.23
2023-04-25T12:09:33.988Z,1.35
2023-04-25T12:12:04.852Z,1.70
2023-04-25T12:14:33.682Z,1.23
2023-04-25T12:17:02.845Z,2.38
2023-04-25T12:19:37.402Z,1.38
2023-04-25T12:22:20.145Z,1.50
2023-04-25T12:24:46.964Z,1.70
2023-04-25T12:27:20.935Z,1.33
2023-04-25T12:29:56.767Z,2.00
2023-04-25T12:32:23.810Z,1.13
2023-04-25T12:34:50.897Z,1.25
2023-04-25T12:37:17.770Z,1.60
2023-04-25T12:39:44.848Z,1.50
2023-04-25T12:42:13.318Z,1.15
2023-04-25T12:44:41.289Z,1.33
2023-04-25T12:47:08.360Z,1.40
2023-04-25T12:49:35.252Z,1.20
2023-04-25T12:52:02.106Z,1.10
2023-04-25T12:54:28.900Z,1.45
2023-04-25T12:56:55.956Z,1.17
2023-04-25T12:59:22.875Z,1.27
2023-04-25T13:01:50.142Z,1.13
2023-04-25T13:04:17.508Z,1.20
2023-04-25T13:06:44.635Z,0.90
2023-04-25T13:09:13.333Z,1.20
2023-04-25T13:11:41.488Z,1.00
2023-04-25T13:14:08.476Z,1.08
2023-04-25T13:16:35.615Z,1.27
2023-04-25T13:19:02.623Z,1.10
2023-04-25T13:21:33.336Z,0.90
2023-04-25T13:24:00.401Z,1.35
2023-04-25T13:26:27.406Z,1.13
2023-04-25T13:28:54.268Z,1.20
2023-04-25T13:31:21.318Z,1.42
2023-04-25T13:33:48.412Z,1.27
2023-04-25T13:36:15.582Z,1.20
2023-04-25T13:38:44.720Z,1.10
2023-04-25T13:41:14.723Z,1.00
2023-04-25T13:43:41.519Z,1.20
2023-04-25T13:46:09.698Z,1.33
2023-04-25T13:48:39.677Z,0.77
2023-04-25T13:51:06.530Z,0.93
2023-04-25T13:53:33.610Z,1.13
2023-04-25T13:56:00.517Z,1.10
2023-04-25T13:58:27.380Z,1.27
2023-04-25T14:00:54.762Z,1.52
2023-04-25T14:03:21.718Z,1.20
2023-04-25T14:05:48.951Z,1.38
2023-04-25T14:08:15.770Z,1.52
2023-04-25T14:10:42.556Z,0.98
2023-04-25T14:13:10.789Z,1.52
2023-04-25T14:15:38.330Z,1.20
2023-04-25T14:18:05.515Z,1.40
2023-04-25T14:20:32.684Z,1.35
2023-04-25T14:22:59.668Z,1.38
2023-04-25T14:25:26.833Z,1.58
2023-04-25T14:27:53.788Z,1.13
2023-04-25T14:30:22.290Z,1.33
2023-04-25T14:32:52.336Z,1.50
2023-04-25T14:35:19.605Z,1.20
2023-04-25T14:37:46.831Z,1.48
2023-04-25T14:40:16.178Z,1.63
2023-04-25T14:42:43.210Z,1.40
2023-04-25T14:45:10.540Z,1.20
2023-04-25T14:47:38.235Z,1.55
2023-04-25T14:50:06.283Z,1.45
2023-04-25T14:52:33.158Z,1.33
2023-04-25T14:55:02.989Z,1.45
2023-04-25T14:57:29.799Z,1.20
2023-04-25T14:59:56.695Z,1.85
2023-04-25T15:02:25.447Z,1.38
2023-04-25T15:04:52.520Z,1.40
2023-04-25T15:07:19.383Z,1.60
2023-04-25T15:09:46.220Z,1.92
2023-04-25T15:12:13.365Z,0.98
2023-04-25T15:14:40.188Z,1.30
2023-04-25T15:17:07.473Z,1.15
2023-04-25T15:19:34.275Z,1.40
2023-04-25T15:22:03.980Z,1.20
2023-04-25T15:24:31.164Z,1.83
2023-04-25T15:26:59.250Z,0.95
2023-04-25T15:29:27.170Z,1.40
2023-04-25T15:31:54.513Z,1.40
2023-04-25T15:34:21.461Z,1.33
2023-04-25T15:36:48.603Z,1.45
2023-04-25T15:39:15.671Z,2.08
2023-04-25T15:41:42.499Z,1.38
2023-04-25T15:44:11.005Z,1.33
2023-04-25T15:46:38.908Z,1.23
2023-04-25T15:49:05.955Z,1.35
2023-04-25T15:51:33.617Z,1.33
2023-04-25T15:54:02.568Z,0.95
2023-04-25T15:56:29.605Z,1.20
2023-04-25T15:58:56.454Z,1.42
2023-04-25T16:01:24.743Z,1.25
2023-04-25T16:03:53.174Z,1.38
2023-04-25T16:06:20.468Z,1.30
2023-04-25T16:08:47.421Z,1.30
2023-04-25T16:11:14.823Z,1.45
2023-04-25T16:13:41.780Z,1.30
2023-04-25T16:16:09.012Z,1.35
2023-04-25T16:18:36.322Z,1.42
2023-04-25T16:21:03.956Z,1.60
2023-04-25T16:23:31.405Z,1.50
2023-04-25T16:25:58.222Z,1.17
2023-04-25T16:28:25.328Z,1.50
2023-04-25T16:30:52.182Z,1.85
2023-04-25T16:33:19.113Z,1.30
2023-04-25T16:35:46.087Z,1.27
2023-04-25T16:38:12.922Z,1.50
2023-04-25T16:40:39.712Z,1.50
2023-04-25T16:43:06.777Z,1.67
2023-04-25T16:45:33.699Z,1.65
2023-04-25T16:48:00.576Z,1.75
2023-04-25T16:50:27.631Z,1.60
2023-04-25T16:52:54.641Z,1.80
2023-04-25T16:55:21.564Z,1.73
2023-04-25T16:57:51.488Z,1.33
2023-04-25T17:00:19.439Z,1.50
2023-04-25T17:02:47.281Z,1.60
2023-04-25T17:05:14.522Z,2.15
2023-04-25T17:07:41.427Z,1.00
2023-04-25T17:10:08.903Z,1.85
2023-04-25T17:12:35.783Z,1.10
2023-04-25T17:15:02.791Z,1.00
2023-04-25T17:17:29.668Z,1.05
2023-04-25T17:19:56.661Z,1.05
2023-04-25T17:22:24.591Z,1.50
2023-04-25T17:24:51.557Z,1.83
2023-04-25T17:27:18.449Z,1.23
2023-04-25T17:29:45.218Z,1.70
2023-04-25T17:32:12.558Z,1.52
2023-04-25T17:34:40.331Z,1.30
2023-04-25T17:37:10.048Z,1.13
2023-04-25T17:39:38.313Z,1.02
2023-04-25T17:42:06.696Z,1.25
2023-04-25T17:44:33.572Z,1.63
2023-04-25T17:47:01.998Z,1.10
2023-04-25T17:49:28.853Z,1.42
2023-04-25T17:51:55.754Z,1.40
2023-04-25T17:54:22.712Z,1.50
2023-04-25T17:56:49.722Z,1.90
2023-04-25T17:59:17.528Z,1.30
2023-04-25T18:01:47.588Z,1.65
2023-04-25T18:04:14.960Z,2.95
2023-04-25T18:06:41.777Z,1.60
2023-04-25T18:09:18.222Z,1.52
2023-04-25T18:11:46.447Z,1.60
2023-04-25T18:14:15.752Z,1.65
2023-04-25T18:16:44.046Z,1.85
2023-04-25T18:19:21.145Z,1.80
2023-04-25T18:21:49.577Z,1.95
2023-04-25T18:24:17.840Z,3.50
2023-04-25T18:26:45.784Z,2.05
2023-04-25T18:29:29.025Z,1.77
2023-04-25T18:31:59.758Z,1.70
2023-04-25T18:34:27.563Z,1.77
2023-04-25T18:36:56.215Z,1.90
2023-04-25T18:39:24.460Z,2.17
2023-04-25T18:41:55.246Z,2.55
2023-04-25T18:44:28.087Z,2.50
2023-04-25T18:46:55.068Z,1.75
2023-04-25T18:49:21.946Z,2.45
2023-04-25T18:51:49.061Z,1.95
2023-04-25T18:54:16.083Z,2.00
2023-04-25T18:56:42.903Z,1.90
2023-04-25T18:59:11.067Z,2.42
2023-04-25T19:01:37.965Z,2.67
2023-04-25T19:04:06.662Z,2.22
2023-04-25T19:06:33.865Z,2.45
2023-04-25T19:09:00.800Z,2.90
2023-04-25T19:11:27.897Z,2.60
2023-04-25T19:13:56.900Z,2.40
2023-04-25T19:16:26.237Z,2.50
2023-04-25T19:18:55.212Z,2.08
2023-04-25T19:21:22.714Z,2.63
2023-04-25T19:23:49.650Z,2.25
2023-04-25T19:26:17.152Z,2.55
2023-04-25T19:28:47.137Z,2.63
2023-04-25T19:31:14.068Z,2.40
2023-04-25T19:33:41.940Z,2.80
2023-04-25T19:36:08.971Z,1.95
2023-04-25T19:38:35.985Z,2.55
2023-04-25T19:41:02.808Z,2.72
2023-04-25T19:43:30.907Z,1.85
2023-04-25T19:45:58.003Z,2.95
2023-04-25T19:48:24.862Z,2.83
2023-04-25T19:50:51.964Z,2.30
2023-04-25T19:53:18.763Z,2.90
2023-04-25T19:55:45.719Z,2.70
2023-04-25T19:58:14.320Z,2.90
2023-04-25T20:00:41.325Z,2.85
2023-04-25T20:03:10.722Z,2.67
2023-04-25T20:05:37.761Z,2.78
2023-04-25T20:08:04.677Z,2.90
2023-04-25T20:10:31.806Z,3.25
2023-04-25T20:12:58.624Z,2.67
2023-04-25T20:15:25.611Z,2.97
2023-04-25T20:17:52.635Z,2.47
2023-04-25T20:20:20.113Z,2.60
2023-04-25T20:22:47.012Z,2.65
2023-04-25T20:25:13.896Z,2.78
2023-04-25T20:27:40.869Z,2.92
2023-04-25T20:30:09.619Z,2.95
2023-04-25T20:32:37.180Z,2.95
2023-04-25T20:35:05.670Z,3.20
2023-04-25T20:37:32.798Z,2.83
2023-04-25T20:40:00.209Z,3.75
2023-04-25T20:42:27.297Z,3.05
2023-04-25T20:44:54.643Z,3.10
2023-04-25T20:47:22.308Z,3.30
2023-04-25T20:49:49.249Z,3.10
2023-04-25T20:52:17.101Z,3.10
2023-04-25T20:54:45.242Z,2.88
2023-04-25T20:57:12.225Z,3.03
2023-04-25T20:59:39.056Z,3.80
2023-04-25T21:02:06.414Z,3.50
2023-04-25T21:04:33.450Z,3.03
2023-04-25T21:07:00.795Z,3.20
2023-04-25T21:09:27.692Z,3.40
2023-04-25T21:11:54.749Z,3.60
2023-04-25T21:14:22.765Z,3.90
2023-04-25T21:16:49.738Z,3.40
2023-04-25T21:19:16.696Z,3.42
2023-04-25T21:21:43.592Z,3.70
2023-04-25T21:24:11.529Z,4.10
2023-04-25T21:26:38.765Z,3.83
2023-04-25T21:29:05.597Z,3.53
2023-04-25T21:31:32.594Z,3.65
2023-04-25T21:33:59.653Z,4.32
2023-04-25T21:36:27.784Z,3.42
2023-04-25T21:38:55.129Z,3.50
2023-04-25T21:41:22.563Z,4.22
2023-04-25T21:43:49.472Z,4.55
2023-04-25T21:46:23.383Z,3.50
2023-04-25T21:48:51.639Z,3.97
2023-04-25T21:51:19.509Z,4.13
2023-04-25T21:53:46.652Z,4.05
2023-04-25T21:56:13.544Z,4.03
2023-04-25T21:58:40.362Z,3.75
2023-04-25T22:01:07.316Z,3.00
2023-04-25T22:03:34.440Z,2.95
2023-04-25T22:06:01.614Z,3.78
2023-04-25T22:08:28.427Z,3.67
2023-04-25T22:10:55.326Z,4.20
2023-04-25T22:13:22.840Z,5.85
2023-04-25T22:15:49.815Z,5.45
2023-04-25T22:18:16.714Z,4.10
2023-04-25T22:20:44.254Z,3.70
2023-04-25T22:23:12.144Z,3.20
2023-04-25T22:25:40.385Z,4.40
2023-04-25T22:28:07.261Z,3.92
2023-04-25T22:30:34.974Z,3.95
2023-04-25T22:33:01.916Z,4.65
2023-04-25T22:35:28.847Z,5.00
2023-04-25T22:37:55.669Z,5.13
2023-04-25T22:40:22.657Z,4.50
2023-04-25T22:42:49.574Z,5.30
2023-04-25T22:45:16.901Z,5.15
2023-04-25T22:47:43.877Z,4.32
2023-04-25T22:50:16.673Z,4.53
2023-04-25T22:52:43.922Z,4.40
2023-04-25T22:55:12.435Z,4.63
2023-04-25T22:57:39.621Z,4.60
2023-04-25T23:00:19.146Z,4.57
2023-04-25T23:02:47.233Z,3.78
2023-04-25T23:05:15.365Z,4.18
2023-04-25T23:07:43.630Z,4.75
2023-04-25T23:10:10.845Z,4.20
2023-04-25T23:12:37.853Z,4.43
2023-04-25T23:15:05.403Z,4.13
2023-04-25T23:17:32.643Z,4.95
2023-04-25T23:19:59.640Z,4.40
2023-04-25T23:22:26.506Z,4.18
2023-04-25T23:24:53.389Z,4.75
2023-04-25T23:27:20.193Z,4.90
2023-04-25T23:29:54.652Z,4.78
2023-04-25T23:32:22.601Z,4.18
2023-04-25T23:34:49.504Z,4.65
2023-04-25T23:37:16.398Z,4.18
2023-04-25T23:39:53.089Z,4.68
2023-04-25T23:42:20.466Z,4.35
2023-04-25T23:44:47.211Z,4.68
2023-04-25T23:47:17.491Z,5.95
2023-04-25T23:49:45.454Z,5.43
2023-04-25T23:52:13.072Z,4.60
2023-04-25T23:54:39.906Z,4.28
2023-04-25T23:57:07.034Z,4.60
2023-04-25T23:59:34.220Z,4.35
